Irving North's Hourly Summary for Saturday, March 18, 2017
Hour Temp
(f)
RH
(%)
Solar Rad.
(MJ/m2)
Rainfall
(in)
Wind
(mph)
3/18/2017 12:00 AM 70 66 0 0 5.75
3/18/2017 1:00 AM 69 72 0 0 6.61
3/18/2017 2:00 AM 67 78 0 0 5.41
3/18/2017 3:00 AM 66 84 0 0 4.57
3/18/2017 4:00 AM 65 87 0 0 3.96
3/18/2017 5:00 AM 64 90 0 0 3.91
3/18/2017 6:00 AM 64 90 0 0 4.47
3/18/2017 7:00 AM 64 90 0.01 0 5.25
3/18/2017 8:00 AM 65 87 0.11 0 4.97
3/18/2017 9:00 AM 66 81 0.49 0 4.42
3/18/2017 10:00 AM 70 69 1.98 0 3.78
3/18/2017 11:00 AM 74 62 2.59 0 3.29
3/18/2017 12:00 PM 76 58 2.79 0 2.82
3/18/2017 1:00 PM 78 57 3.13 0 4.03
3/18/2017 2:00 PM 79 53 2.71 0 3.95
3/18/2017 3:00 PM 80 52 1.9 0 5.32
3/18/2017 4:00 PM 81 49 2.06 0 5.69
3/18/2017 5:00 PM 82 44 1.44 0 6.21
3/18/2017 6:00 PM 81 47 0.66 0 6.82
3/18/2017 7:00 PM 78 52 0.07 0 6.48
3/18/2017 8:00 PM 75 58 0 0 4.79
3/18/2017 9:00 PM 74 61 0 0 3.87
3/18/2017 10:00 PM 72 64 0 0 2.7
3/18/2017 11:00 PM 70 69 0 0 2.05
Data Summary 72 67 19.94 0.00 4.63